sensor_id;sensor_type;location;lat;lon;timestamp;temperature;humidity
40077;DHT22;25777;47.824;18.982;2023-10-09T00:01:45;6.20;99.00
40077;DHT22;25777;47.824;18.982;2023-10-09T00:04:12;6.10;98.70
40077;DHT22;25777;47.824;18.982;2023-10-09T00:06:40;6.00;99.90
40077;DHT22;25777;47.824;18.982;2023-10-09T00:09:08;6.10;99.50
40077;DHT22;25777;47.824;18.982;2023-10-09T00:11:57;6.10;99.50
40077;DHT22;25777;47.824;18.982;2023-10-09T00:14:27;6.20;99.90
40077;DHT22;25777;47.824;18.982;2023-10-09T00:16:56;6.30;99.60
40077;DHT22;25777;47.824;18.982;2023-10-09T00:19:42;6.40;99.60
40077;DHT22;25777;47.824;18.982;2023-10-09T00:22:09;6.30;99.90
40077;DHT22;25777;47.824;18.982;2023-10-09T00:24:57;6.40;99.90
40077;DHT22;25777;47.824;18.982;2023-10-09T00:27:41;6.60;99.50
40077;DHT22;25777;47.824;18.982;2023-10-09T00:30:13;6.60;98.90
40077;DHT22;25777;47.824;18.982;2023-10-09T00:32:44;6.70;98.50
40077;DHT22;25777;47.824;18.982;2023-10-09T00:35:30;6.80;98.40
40077;DHT22;25777;47.824;18.982;2023-10-09T00:38:05;6.80;98.50
40077;DHT22;25777;47.824;18.982;2023-10-09T00:40:50;6.90;98.20
40077;DHT22;25777;47.824;18.982;2023-10-09T00:43:34;6.90;98.30
40077;DHT22;25777;47.824;18.982;2023-10-09T00:46:05;6.90;99.00
40077;DHT22;25777;47.824;18.982;2023-10-09T00:48:42;6.90;99.00
40077;DHT22;25777;47.824;18.982;2023-10-09T00:51:08;7.00;98.50
40077;DHT22;25777;47.824;18.982;2023-10-09T00:53:49;7.00;98.70
40077;DHT22;25777;47.824;18.982;2023-10-09T00:56:19;7.20;98.10
40077;DHT22;25777;47.824;18.982;2023-10-09T00:58:59;7.10;98.00
40077;DHT22;25777;47.824;18.982;2023-10-09T01:01:32;7.20;98.30
40077;DHT22;25777;47.824;18.982;2023-10-09T01:04:03;7.20;98.20
40077;DHT22;25777;47.824;18.982;2023-10-09T01:06:55;7.20;97.80
40077;DHT22;25777;47.824;18.982;2023-10-09T01:09:35;7.30;97.50
40077;DHT22;25777;47.824;18.982;2023-10-09T01:12:04;7.30;97.60
40077;DHT22;25777;47.824;18.982;2023-10-09T01:14:33;7.40;97.60
40077;DHT22;25777;47.824;18.982;2023-10-09T01:17:02;7.50;97.50
40077;DHT22;25777;47.824;18.982;2023-10-09T01:19:33;7.50;97.20
40077;DHT22;25777;47.824;18.982;2023-10-09T01:22:00;7.50;97.20
40077;DHT22;25777;47.824;18.982;2023-10-09T01:24:41;7.40;97.70
40077;DHT22;25777;47.824;18.982;2023-10-09T01:27:08;7.40;98.50
40077;DHT22;25777;47.824;18.982;2023-10-09T01:29:40;7.20;99.90
40077;DHT22;25777;47.824;18.982;2023-10-09T01:32:08;7.30;99.90
40077;DHT22;25777;47.824;18.982;2023-10-09T01:34:42;7.40;99.90
40077;DHT22;25777;47.824;18.982;2023-10-09T01:37:11;7.30;99.90
40077;DHT22;25777;47.824;18.982;2023-10-09T01:39:50;7.50;99.90
40077;DHT22;25777;47.824;18.982;2023-10-09T01:42:17;7.40;99.90
40077;DHT22;25777;47.824;18.982;2023-10-09T01:44:56;7.40;99.90
40077;DHT22;25777;47.824;18.982;2023-10-09T01:47:25;7.50;99.90
40077;DHT22;25777;47.824;18.982;2023-10-09T01:49:57;7.60;99.90
40077;DHT22;25777;47.824;18.982;2023-10-09T01:52:23;7.60;99.90
40077;DHT22;25777;47.824;18.982;2023-10-09T01:54:51;7.60;99.90
40077;DHT22;25777;47.824;18.982;2023-10-09T01:57:18;7.60;99.60
40077;DHT22;25777;47.824;18.982;2023-10-09T01:59:51;7.60;99.90
40077;DHT22;25777;47.824;18.982;2023-10-09T02:02:19;7.60;99.90
40077;DHT22;25777;47.824;18.982;2023-10-09T02:05:18;7.60;99.90
40077;DHT22;25777;47.824;18.982;2023-10-09T02:07:43;7.50;99.80
40077;DHT22;25777;47.824;18.982;2023-10-09T02:10:20;7.60;99.80
40077;DHT22;25777;47.824;18.982;2023-10-09T02:13:02;7.80;99.20
40077;DHT22;25777;47.824;18.982;2023-10-09T02:15:40;7.70;98.20
40077;DHT22;25777;47.824;18.982;2023-10-09T02:18:06;7.70;98.50
40077;DHT22;25777;47.824;18.982;2023-10-09T02:21:07;7.90;98.60
40077;DHT22;25777;47.824;18.982;2023-10-09T02:23:35;7.90;98.30
40077;DHT22;25777;47.824;18.982;2023-10-09T02:26:11;7.90;98.30
40077;DHT22;25777;47.824;18.982;2023-10-09T02:29:05;7.90;98.30
40077;DHT22;25777;47.824;18.982;2023-10-09T02:31:31;7.90;98.90
40077;DHT22;25777;47.824;18.982;2023-10-09T02:34:08;7.80;99.20
40077;DHT22;25777;47.824;18.982;2023-10-09T02:36:36;7.90;99.50
40077;DHT22;25777;47.824;18.982;2023-10-09T02:39:12;8.00;99.80
40077;DHT22;25777;47.824;18.982;2023-10-09T02:44:23;8.00;98.30
40077;DHT22;25777;47.824;18.982;2023-10-09T02:46:54;7.90;97.50
40077;DHT22;25777;47.824;18.982;2023-10-09T02:49:26;7.90;97.40
40077;DHT22;25777;47.824;18.982;2023-10-09T02:51:52;8.00;97.20
40077;DHT22;25777;47.824;18.982;2023-10-09T02:54:19;8.00;97.30
40077;DHT22;25777;47.824;18.982;2023-10-09T02:56:53;8.10;97.40
40077;DHT22;25777;47.824;18.982;2023-10-09T02:59:31;8.10;97.20
40077;DHT22;25777;47.824;18.982;2023-10-09T03:01:57;8.10;97.00
40077;DHT22;25777;47.824;18.982;2023-10-09T03:04:28;8.10;97.60
40077;DHT22;25777;47.824;18.982;2023-10-09T03:06:57;8.20;98.20
40077;DHT22;25777;47.824;18.982;2023-10-09T03:09:24;8.10;98.00
40077;DHT22;25777;47.824;18.982;2023-10-09T03:11:55;8.10;98.10
40077;DHT22;25777;47.824;18.982;2023-10-09T03:14:34;8.10;98.60
40077;DHT22;25777;47.824;18.982;2023-10-09T03:17:07;8.10;98.80
40077;DHT22;25777;47.824;18.982;2023-10-09T03:19:37;8.10;99.00
40077;DHT22;25777;47.824;18.982;2023-10-09T03:22:04;8.10;98.70
40077;DHT22;25777;47.824;18.982;2023-10-09T03:24:30;8.20;98.50
40077;DHT22;25777;47.824;18.982;2023-10-09T03:27:00;8.10;99.00
40077;DHT22;25777;47.824;18.982;2023-10-09T03:29:26;8.10;99.00
40077;DHT22;25777;47.824;18.982;2023-10-09T03:31:53;8.20;98.80
40077;DHT22;25777;47.824;18.982;2023-10-09T03:34:21;8.20;98.90
40077;DHT22;25777;47.824;18.982;2023-10-09T03:36:47;8.30;99.80
40077;DHT22;25777;47.824;18.982;2023-10-09T03:39:17;8.40;99.90
40077;DHT22;25777;47.824;18.982;2023-10-09T03:42:01;8.30;99.90
40077;DHT22;25777;47.824;18.982;2023-10-09T03:44:34;8.40;99.80
40077;DHT22;25777;47.824;18.982;2023-10-09T03:47:04;8.30;99.80
40077;DHT22;25777;47.824;18.982;2023-10-09T03:49:30;8.40;99.90
40077;DHT22;25777;47.824;18.982;2023-10-09T03:51:57;8.30;99.90
40077;DHT22;25777;47.824;18.982;2023-10-09T03:54:25;8.40;99.90
40077;DHT22;25777;47.824;18.982;2023-10-09T03:56:52;8.50;99.90
40077;DHT22;25777;47.824;18.982;2023-10-09T03:59:21;8.40;99.90
40077;DHT22;25777;47.824;18.982;2023-10-09T04:01:47;8.40;99.90
40077;DHT22;25777;47.824;18.982;2023-10-09T04:04:16;8.30;99.90
40077;DHT22;25777;47.824;18.982;2023-10-09T04:06:42;8.40;99.90
40077;DHT22;25777;47.824;18.982;2023-10-09T04:09:10;8.40;99.90
40077;DHT22;25777;47.824;18.982;2023-10-09T04:11:48;8.40;99.90
40077;DHT22;25777;47.824;18.982;2023-10-09T04:14:16;8.30;99.90
40077;DHT22;25777;47.824;18.982;2023-10-09T04:16:51;8.30;99.90
40077;DHT22;25777;47.824;18.982;2023-10-09T04:19:18;8.30;99.90
40077;DHT22;25777;47.824;18.982;2023-10-09T04:21:50;8.30;99.90
40077;DHT22;25777;47.824;18.982;2023-10-09T04:24:17;8.40;99.90
40077;DHT22;25777;47.824;18.982;2023-10-09T04:26:44;8.40;99.90
40077;DHT22;25777;47.824;18.982;2023-10-09T04:29:12;8.40;99.90
40077;DHT22;25777;47.824;18.982;2023-10-09T04:31:56;8.30;99.90
40077;DHT22;25777;47.824;18.982;2023-10-09T04:34:26;8.40;99.90
40077;DHT22;25777;47.824;18.982;2023-10-09T04:37:01;8.30;99.90
40077;DHT22;25777;47.824;18.982;2023-10-09T04:39:42;8.30;99.90
40077;DHT22;25777;47.824;18.982;2023-10-09T04:42:16;8.30;99.90
40077;DHT22;25777;47.824;18.982;2023-10-09T04:44:50;8.30;99.90
40077;DHT22;25777;47.824;18.982;2023-10-09T04:47:26;8.30;99.90
40077;DHT22;25777;47.824;18.982;2023-10-09T04:50:02;8.30;99.90
40077;DHT22;25777;47.824;18.982;2023-10-09T04:52:32;8.40;99.90
40077;DHT22;25777;47.824;18.982;2023-10-09T04:54:58;8.40;99.90
40077;DHT22;25777;47.824;18.982;2023-10-09T04:57:44;8.40;99.90
40077;DHT22;25777;47.824;18.982;2023-10-09T05:00:12;8.40;99.90
40077;DHT22;25777;47.824;18.982;2023-10-09T05:02:51;8.40;99.90
40077;DHT22;25777;47.824;18.982;2023-10-09T05:05:26;8.40;99.90
40077;DHT22;25777;47.824;18.982;2023-10-09T05:08:12;8.40;99.90
40077;DHT22;25777;47.824;18.982;2023-10-09T05:10:51;8.50;99.90
40077;DHT22;25777;47.824;18.982;2023-10-09T05:13:27;8.40;99.90
40077;DHT22;25777;47.824;18.982;2023-10-09T05:18:39;8.50;99.90
40077;DHT22;25777;47.824;18.982;2023-10-09T05:21:05;8.50;99.90
40077;DHT22;25777;47.824;18.982;2023-10-09T05:23:54;8.50;99.90
40077;DHT22;25777;47.824;18.982;2023-10-09T05:26:46;8.50;99.90
40077;DHT22;25777;47.824;18.982;2023-10-09T05:29:12;8.60;99.90
40077;DHT22;25777;47.824;18.982;2023-10-09T05:32:02;8.70;99.90
40077;DHT22;25777;47.824;18.982;2023-10-09T05:34:29;8.60;99.90
40077;DHT22;25777;47.824;18.982;2023-10-09T05:37:06;8.60;99.90
40077;DHT22;25777;47.824;18.982;2023-10-09T05:42:29;8.60;99.90
40077;DHT22;25777;47.824;18.982;2023-10-09T05:45:12;8.50;99.90
40077;DHT22;25777;47.824;18.982;2023-10-09T05:47:48;8.50;99.90
40077;DHT22;25777;47.824;18.982;2023-10-09T05:50:24;8.60;99.90
40077;DHT22;25777;47.824;18.982;2023-10-09T05:52:51;8.60;99.90
40077;DHT22;25777;47.824;18.982;2023-10-09T05:55:17;8.70;99.90
40077;DHT22;25777;47.824;18.982;2023-10-09T05:57:55;8.60;99.90
40077;DHT22;25777;47.824;18.982;2023-10-09T06:00:25;8.60;99.90
40077;DHT22;25777;47.824;18.982;2023-10-09T06:03:10;8.70;99.90
40077;DHT22;25777;47.824;18.982;2023-10-09T06:05:46;8.80;99.90
40077;DHT22;25777;47.824;18.982;2023-10-09T06:08:31;8.80;99.90
40077;DHT22;25777;47.824;18.982;2023-10-09T06:11:09;8.80;99.90
40077;DHT22;25777;47.824;18.982;2023-10-09T06:13:55;8.80;99.90
40077;DHT22;25777;47.824;18.982;2023-10-09T06:16:41;8.90;99.90
40077;DHT22;25777;47.824;18.982;2023-10-09T06:19:13;9.00;99.90
40077;DHT22;25777;47.824;18.982;2023-10-09T06:21:46;9.00;99.90
40077;DHT22;25777;47.824;18.982;2023-10-09T06:24:24;9.00;99.90
40077;DHT22;25777;47.824;18.982;2023-10-09T06:26:51;9.20;99.90
40077;DHT22;25777;47.824;18.982;2023-10-09T06:29:27;9.10;99.90
40077;DHT22;25777;47.824;18.982;2023-10-09T06:32:02;9.20;99.90
40077;DHT22;25777;47.824;18.982;2023-10-09T06:34:54;9.30;99.90
40077;DHT22;25777;47.824;18.982;2023-10-09T06:37:41;9.20;99.90
40077;DHT22;25777;47.824;18.982;2023-10-09T06:40:37;9.30;99.90
40077;DHT22;25777;47.824;18.982;2023-10-09T06:43:23;9.30;99.90
40077;DHT22;25777;47.824;18.982;2023-10-09T06:45:50;9.30;99.90
40077;DHT22;25777;47.824;18.982;2023-10-09T06:48:34;9.40;99.90
40077;DHT22;25777;47.824;18.982;2023-10-09T06:53:41;9.40;99.90
40077;DHT22;25777;47.824;18.982;2023-10-09T06:56:28;9.40;99.90
40077;DHT22;25777;47.824;18.982;2023-10-09T06:58:58;9.50;99.90
40077;DHT22;25777;47.824;18.982;2023-10-09T07:01:25;9.50;99.90
40077;DHT22;25777;47.824;18.982;2023-10-09T07:04:03;9.60;99.90
40077;DHT22;25777;47.824;18.982;2023-10-09T07:06:50;9.70;99.90
40077;DHT22;25777;47.824;18.982;2023-10-09T07:09:22;9.70;99.70
40077;DHT22;25777;47.824;18.982;2023-10-09T07:11:54;9.80;97.70
40077;DHT22;25777;47.824;18.982;2023-10-09T07:14:23;9.90;97.50
40077;DHT22;25777;47.824;18.982;2023-10-09T07:19:44;10.10;95.60
40077;DHT22;25777;47.824;18.982;2023-10-09T07:22:13;10.20;95.10
40077;DHT22;25777;47.824;18.982;2023-10-09T07:24:49;10.20;93.80
40077;DHT22;25777;47.824;18.982;2023-10-09T07:27:19;10.20;91.90
40077;DHT22;25777;47.824;18.982;2023-10-09T07:30:06;10.30;94.10
40077;DHT22;25777;47.824;18.982;2023-10-09T07:32:53;10.30;93.00
40077;DHT22;25777;47.824;18.982;2023-10-09T07:35:21;10.30;91.20
40077;DHT22;25777;47.824;18.982;2023-10-09T07:38:05;10.20;92.70
40077;DHT22;25777;47.824;18.982;2023-10-09T07:40:38;10.20;93.40
40077;DHT22;25777;47.824;18.982;2023-10-09T07:43:25;10.20;93.50
40077;DHT22;25777;47.824;18.982;2023-10-09T07:46:26;10.30;92.90
40077;DHT22;25777;47.824;18.982;2023-10-09T07:49:10;10.30;90.80
40077;DHT22;25777;47.824;18.982;2023-10-09T07:51:39;10.40;91.30
40077;DHT22;25777;47.824;18.982;2023-10-09T07:54:09;10.40;88.20
40077;DHT22;25777;47.824;18.982;2023-10-09T07:56:39;10.40;90.40
40077;DHT22;25777;47.824;18.982;2023-10-09T07:59:11;10.40;90.10
40077;DHT22;25777;47.824;18.982;2023-10-09T08:01:41;10.50;88.30
40077;DHT22;25777;47.824;18.982;2023-10-09T08:04:24;10.60;88.60
40077;DHT22;25777;47.824;18.982;2023-10-09T08:07:08;10.70;90.00
40077;DHT22;25777;47.824;18.982;2023-10-09T08:09:35;10.80;86.30
40077;DHT22;25777;47.824;18.982;2023-10-09T08:12:13;10.90;80.70
40077;DHT22;25777;47.824;18.982;2023-10-09T08:14:58;11.00;82.30
40077;DHT22;25777;47.824;18.982;2023-10-09T08:17:44;11.00;80.60
40077;DHT22;25777;47.824;18.982;2023-10-09T08:20:16;11.00;82.50
40077;DHT22;25777;47.824;18.982;2023-10-09T08:22:43;11.00;76.90
40077;DHT22;25777;47.824;18.982;2023-10-09T08:25:12;11.10;74.70
40077;DHT22;25777;47.824;18.982;2023-10-09T08:28:00;11.10;74.50
40077;DHT22;25777;47.824;18.982;2023-10-09T08:30:46;11.20;72.00
40077;DHT22;25777;47.824;18.982;2023-10-09T08:33:21;11.20;70.40
40077;DHT22;25777;47.824;18.982;2023-10-09T08:35:54;11.30;68.20
40077;DHT22;25777;47.824;18.982;2023-10-09T08:38:33;11.40;69.10
40077;DHT22;25777;47.824;18.982;2023-10-09T08:41:10;11.40;69.10
40077;DHT22;25777;47.824;18.982;2023-10-09T08:43:53;11.40;72.50
40077;DHT22;25777;47.824;18.982;2023-10-09T08:46:21;11.50;71.00
40077;DHT22;25777;47.824;18.982;2023-10-09T08:48:48;11.50;68.90
40077;DHT22;25777;47.824;18.982;2023-10-09T08:51:14;11.50;68.00
40077;DHT22;25777;47.824;18.982;2023-10-09T08:53:42;11.60;66.00
40077;DHT22;25777;47.824;18.982;2023-10-09T08:56:12;11.60;67.90
40077;DHT22;25777;47.824;18.982;2023-10-09T08:58:41;11.70;68.80
40077;DHT22;25777;47.824;18.982;2023-10-09T09:01:07;11.70;67.90
40077;DHT22;25777;47.824;18.982;2023-10-09T09:03:41;11.70;68.50
40077;DHT22;25777;47.824;18.982;2023-10-09T09:06:09;11.70;68.60
40077;DHT22;25777;47.824;18.982;2023-10-09T09:08:36;11.70;69.30
40077;DHT22;25777;47.824;18.982;2023-10-09T09:11:07;11.70;68.20
40077;DHT22;25777;47.824;18.982;2023-10-09T09:13:59;11.70;70.30
40077;DHT22;25777;47.824;18.982;2023-10-09T09:16:33;11.70;67.00
40077;DHT22;25777;47.824;18.982;2023-10-09T09:19:02;11.60;67.30
40077;DHT22;25777;47.824;18.982;2023-10-09T09:21:57;11.70;67.70
40077;DHT22;25777;47.824;18.982;2023-10-09T09:24:37;11.80;70.10
40077;DHT22;25777;47.824;18.982;2023-10-09T09:27:05;11.90;68.30
40077;DHT22;25777;47.824;18.982;2023-10-09T09:30:00;12.10;66.40
40077;DHT22;25777;47.824;18.982;2023-10-09T09:32:33;12.20;63.90
40077;DHT22;25777;47.824;18.982;2023-10-09T09:35:02;12.30;63.10
40077;DHT22;25777;47.824;18.982;2023-10-09T09:37:31;12.30;64.30
40077;DHT22;25777;47.824;18.982;2023-10-09T09:40:16;12.30;65.90
40077;DHT22;25777;47.824;18.982;2023-10-09T09:42:59;12.40;64.80
40077;DHT22;25777;47.824;18.982;2023-10-09T09:45:37;12.40;63.60
40077;DHT22;25777;47.824;18.982;2023-10-09T09:48:08;12.40;64.40
40077;DHT22;25777;47.824;18.982;2023-10-09T09:50:36;12.40;65.30
40077;DHT22;25777;47.824;18.982;2023-10-09T09:53:15;12.50;66.60
40077;DHT22;25777;47.824;18.982;2023-10-09T09:55:52;12.40;67.40
40077;DHT22;25777;47.824;18.982;2023-10-09T09:58:21;12.40;64.30
40077;DHT22;25777;47.824;18.982;2023-10-09T10:00:53;12.30;67.20
40077;DHT22;25777;47.824;18.982;2023-10-09T10:03:27;12.20;65.80
40077;DHT22;25777;47.824;18.982;2023-10-09T10:05:57;12.10;67.80
40077;DHT22;25777;47.824;18.982;2023-10-09T10:08:24;12.20;71.40
40077;DHT22;25777;47.824;18.982;2023-10-09T10:11:00;12.60;70.30
40077;DHT22;25777;47.824;18.982;2023-10-09T10:16:13;13.00;66.00
40077;DHT22;25777;47.824;18.982;2023-10-09T10:19:04;13.60;66.90
40077;DHT22;25777;47.824;18.982;2023-10-09T10:21:48;14.10;64.80
40077;DHT22;25777;47.824;18.982;2023-10-09T10:27:15;14.90;59.70
40077;DHT22;25777;47.824;18.982;2023-10-09T10:30:26;15.10;59.30
40077;DHT22;25777;47.824;18.982;2023-10-09T10:32:59;14.60;57.60
40077;DHT22;25777;47.824;18.982;2023-10-09T10:35:35;14.50;60.50
40077;DHT22;25777;47.824;18.982;2023-10-09T10:40:50;15.00;58.30
40077;DHT22;25777;47.824;18.982;2023-10-09T10:43:26;14.90;56.80
40077;DHT22;25777;47.824;18.982;2023-10-09T10:46:05;15.00;57.90
40077;DHT22;25777;47.824;18.982;2023-10-09T10:48:40;15.20;58.40
40077;DHT22;25777;47.824;18.982;2023-10-09T10:51:15;15.00;57.20
40077;DHT22;25777;47.824;18.982;2023-10-09T10:53:53;15.40;57.00
40077;DHT22;25777;47.824;18.982;2023-10-09T10:56:25;16.10;56.80
40077;DHT22;25777;47.824;18.982;2023-10-09T10:59:01;16.00;55.30
40077;DHT22;25777;47.824;18.982;2023-10-09T11:01:33;15.80;54.80
40077;DHT22;25777;47.824;18.982;2023-10-09T11:04:18;15.60;56.50
40077;DHT22;25777;47.824;18.982;2023-10-09T11:06:54;15.50;56.40
40077;DHT22;25777;47.824;18.982;2023-10-09T11:09:56;15.40;56.10
40077;DHT22;25777;47.824;18.982;2023-10-09T11:15:05;14.90;57.90
40077;DHT22;25777;47.824;18.982;2023-10-09T11:17:38;14.90;57.10
40077;DHT22;25777;47.824;18.982;2023-10-09T11:20:06;14.60;58.80
40077;DHT22;25777;47.824;18.982;2023-10-09T11:22:52;14.60;63.00
40077;DHT22;25777;47.824;18.982;2023-10-09T11:25:41;14.40;58.30
40077;DHT22;25777;47.824;18.982;2023-10-09T11:28:20;14.20;60.90
40077;DHT22;25777;47.824;18.982;2023-10-09T11:31:13;14.10;61.90
40077;DHT22;25777;47.824;18.982;2023-10-09T11:33:47;13.90;61.80
40077;DHT22;25777;47.824;18.982;2023-10-09T11:36:22;13.90;62.40
40077;DHT22;25777;47.824;18.982;2023-10-09T11:39:01;13.90;62.40
40077;DHT22;25777;47.824;18.982;2023-10-09T11:41:44;13.70;66.60
40077;DHT22;25777;47.824;18.982;2023-10-09T11:44:10;13.60;69.00
40077;DHT22;25777;47.824;18.982;2023-10-09T11:47:03;13.60;71.40
40077;DHT22;25777;47.824;18.982;2023-10-09T11:49:54;13.50;72.70
40077;DHT22;25777;47.824;18.982;2023-10-09T11:52:30;13.30;70.90
40077;DHT22;25777;47.824;18.982;2023-10-09T11:54:57;13.30;73.20
40077;DHT22;25777;47.824;18.982;2023-10-09T11:57:27;13.20;76.30
40077;DHT22;25777;47.824;18.982;2023-10-09T12:00:04;13.20;75.80
40077;DHT22;25777;47.824;18.982;2023-10-09T12:02:37;13.30;75.10
40077;DHT22;25777;47.824;18.982;2023-10-09T12:05:10;13.30;77.00
40077;DHT22;25777;47.824;18.982;2023-10-09T12:07:44;13.30;77.00
40077;DHT22;25777;47.824;18.982;2023-10-09T12:10:10;13.20;78.40
40077;DHT22;25777;47.824;18.982;2023-10-09T12:12:40;13.20;77.80
40077;DHT22;25777;47.824;18.982;2023-10-09T12:15:06;13.20;77.30
40077;DHT22;25777;47.824;18.982;2023-10-09T12:17:33;13.30;80.00
40077;DHT22;25777;47.824;18.982;2023-10-09T12:19:59;13.30;80.50
40077;DHT22;25777;47.824;18.982;2023-10-09T12:22:24;13.30;72.80
40077;DHT22;25777;47.824;18.982;2023-10-09T12:24:53;13.30;75.20
40077;DHT22;25777;47.824;18.982;2023-10-09T12:27:19;13.30;76.20
40077;DHT22;25777;47.824;18.982;2023-10-09T12:29:46;13.20;73.00
40077;DHT22;25777;47.824;18.982;2023-10-09T12:32:11;13.10;77.60
40077;DHT22;25777;47.824;18.982;2023-10-09T12:34:38;13.10;74.90
40077;DHT22;25777;47.824;18.982;2023-10-09T12:37:04;13.20;73.30
40077;DHT22;25777;47.824;18.982;2023-10-09T12:39:32;13.20;77.10
40077;DHT22;25777;47.824;18.982;2023-10-09T12:42:06;13.20;75.20
40077;DHT22;25777;47.824;18.982;2023-10-09T12:44:33;13.10;73.20
40077;DHT22;25777;47.824;18.982;2023-10-09T12:47:00;13.10;77.80
40077;DHT22;25777;47.824;18.982;2023-10-09T12:49:38;13.20;79.40
40077;DHT22;25777;47.824;18.982;2023-10-09T12:52:08;13.20;77.40
40077;DHT22;25777;47.824;18.982;2023-10-09T12:54:42;13.10;74.30
40077;DHT22;25777;47.824;18.982;2023-10-09T12:57:09;13.00;77.00
40077;DHT22;25777;47.824;18.982;2023-10-09T12:59:42;12.90;79.50
40077;DHT22;25777;47.824;18.982;2023-10-09T13:02:16;12.80;82.60
40077;DHT22;25777;47.824;18.982;2023-10-09T13:05:03;12.80;82.00
40077;DHT22;25777;47.824;18.982;2023-10-09T13:07:31;12.80;85.80
40077;DHT22;25777;47.824;18.982;2023-10-09T13:09:57;12.80;86.80
40077;DHT22;25777;47.824;18.982;2023-10-09T13:12:37;12.80;90.30
40077;DHT22;25777;47.824;18.982;2023-10-09T13:15:12;12.60;92.20
40077;DHT22;25777;47.824;18.982;2023-10-09T13:17:39;12.70;92.40
40077;DHT22;25777;47.824;18.982;2023-10-09T13:20:05;12.70;92.80
40077;DHT22;25777;47.824;18.982;2023-10-09T13:22:52;12.70;93.20
40077;DHT22;25777;47.824;18.982;2023-10-09T13:25:18;12.80;93.70
40077;DHT22;25777;47.824;18.982;2023-10-09T13:27:50;12.70;92.50
40077;DHT22;25777;47.824;18.982;2023-10-09T13:30:20;12.70;91.60
40077;DHT22;25777;47.824;18.982;2023-10-09T13:32:49;12.70;91.20
40077;DHT22;25777;47.824;18.982;2023-10-09T13:35:18;12.70;91.50
40077;DHT22;25777;47.824;18.982;2023-10-09T13:37:47;12.70;92.00
40077;DHT22;25777;47.824;18.982;2023-10-09T13:40:21;12.60;92.60
40077;DHT22;25777;47.824;18.982;2023-10-09T13:42:56;12.70;92.30
40077;DHT22;25777;47.824;18.982;2023-10-09T13:45:38;12.50;94.60
40077;DHT22;25777;47.824;18.982;2023-10-09T13:48:04;12.50;94.40
40077;DHT22;25777;47.824;18.982;2023-10-09T13:50:30;12.50;94.20
40077;DHT22;25777;47.824;18.982;2023-10-09T13:52:59;12.60;94.50
40077;DHT22;25777;47.824;18.982;2023-10-09T13:55:25;12.70;94.90
40077;DHT22;25777;47.824;18.982;2023-10-09T13:57:59;12.60;94.50
40077;DHT22;25777;47.824;18.982;2023-10-09T14:00:25;12.50;93.20
40077;DHT22;25777;47.824;18.982;2023-10-09T14:03:07;12.50;94.10
40077;DHT22;25777;47.824;18.982;2023-10-09T14:05:40;12.40;94.50
40077;DHT22;25777;47.824;18.982;2023-10-09T14:08:22;12.30;96.30
40077;DHT22;25777;47.824;18.982;2023-10-09T14:10:49;12.20;97.70
40077;DHT22;25777;47.824;18.982;2023-10-09T14:13:16;12.20;98.80
40077;DHT22;25777;47.824;18.982;2023-10-09T14:15:42;12.20;98.90
40077;DHT22;25777;47.824;18.982;2023-10-09T14:18:09;12.20;99.90
40077;DHT22;25777;47.824;18.982;2023-10-09T14:20:40;12.20;99.90
40077;DHT22;25777;47.824;18.982;2023-10-09T14:23:07;12.20;99.90
40077;DHT22;25777;47.824;18.982;2023-10-09T14:25:35;12.20;99.90
40077;DHT22;25777;47.824;18.982;2023-10-09T14:28:08;12.10;99.90
40077;DHT22;25777;47.824;18.982;2023-10-09T14:30:38;11.80;99.90
40077;DHT22;25777;47.824;18.982;2023-10-09T14:33:13;11.60;99.90
40077;DHT22;25777;47.824;18.982;2023-10-09T14:35:40;11.40;99.90
40077;DHT22;25777;47.824;18.982;2023-10-09T14:38:06;11.30;99.90
40077;DHT22;25777;47.824;18.982;2023-10-09T14:40:45;11.60;99.90
40077;DHT22;25777;47.824;18.982;2023-10-09T14:43:11;11.70;99.90
40077;DHT22;25777;47.824;18.982;2023-10-09T14:45:48;11.80;99.90
40077;DHT22;25777;47.824;18.982;2023-10-09T14:48:16;11.80;99.90
40077;DHT22;25777;47.824;18.982;2023-10-09T14:50:52;11.90;99.90
40077;DHT22;25777;47.824;18.982;2023-10-09T14:53:23;11.90;99.90
40077;DHT22;25777;47.824;18.982;2023-10-09T14:55:58;11.90;99.90
40077;DHT22;25777;47.824;18.982;2023-10-09T14:58:27;11.90;99.90
40077;DHT22;25777;47.824;18.982;2023-10-09T15:00:58;11.90;99.90
40077;DHT22;25777;47.824;18.982;2023-10-09T15:03:35;11.90;99.90
40077;DHT22;25777;47.824;18.982;2023-10-09T15:06:03;11.80;99.90
40077;DHT22;25777;47.824;18.982;2023-10-09T15:08:34;11.60;99.90
40077;DHT22;25777;47.824;18.982;2023-10-09T15:11:00;11.60;99.90
40077;DHT22;25777;47.824;18.982;2023-10-09T15:13:26;11.60;99.90
40077;DHT22;25777;47.824;18.982;2023-10-09T15:15:54;11.50;99.90
40077;DHT22;25777;47.824;18.982;2023-10-09T15:18:21;11.50;99.90
40077;DHT22;25777;47.824;18.982;2023-10-09T15:20:48;11.20;99.90
40077;DHT22;25777;47.824;18.982;2023-10-09T15:23:14;11.10;99.90
40077;DHT22;25777;47.824;18.982;2023-10-09T15:25:40;11.30;99.90
40077;DHT22;25777;47.824;18.982;2023-10-09T15:28:11;11.30;99.90
40077;DHT22;25777;47.824;18.982;2023-10-09T15:30:38;11.40;99.90
40077;DHT22;25777;47.824;18.982;2023-10-09T15:33:07;11.50;99.90
40077;DHT22;25777;47.824;18.982;2023-10-09T15:35:34;11.50;99.90
40077;DHT22;25777;47.824;18.982;2023-10-09T15:38:03;11.40;99.90
40077;DHT22;25777;47.824;18.982;2023-10-09T15:40:33;11.50;99.90
40077;DHT22;25777;47.824;18.982;2023-10-09T15:43:03;11.40;99.90
40077;DHT22;25777;47.824;18.982;2023-10-09T15:45:31;11.40;99.90
40077;DHT22;25777;47.824;18.982;2023-10-09T15:47:57;11.40;99.90
40077;DHT22;25777;47.824;18.982;2023-10-09T15:50:25;11.30;99.90
40077;DHT22;25777;47.824;18.982;2023-10-09T15:52:55;11.40;99.90
40077;DHT22;25777;47.824;18.982;2023-10-09T15:55:21;11.40;99.90
40077;DHT22;25777;47.824;18.982;2023-10-09T15:57:54;11.40;99.90
40077;DHT22;25777;47.824;18.982;2023-10-09T16:00:21;11.30;99.90
40077;DHT22;25777;47.824;18.982;2023-10-09T16:02:53;11.20;99.90
40077;DHT22;25777;47.824;18.982;2023-10-09T16:05:20;11.30;99.90
40077;DHT22;25777;47.824;18.982;2023-10-09T16:07:51;11.30;99.90
40077;DHT22;25777;47.824;18.982;2023-10-09T16:10:21;11.20;99.90
40077;DHT22;25777;47.824;18.982;2023-10-09T16:12:48;11.20;99.90
40077;DHT22;25777;47.824;18.982;2023-10-09T16:15:16;11.20;99.90
40077;DHT22;25777;47.824;18.982;2023-10-09T16:17:46;11.20;99.90
40077;DHT22;25777;47.824;18.982;2023-10-09T16:20:13;11.10;99.90
40077;DHT22;25777;47.824;18.982;2023-10-09T16:22:50;11.20;99.90
40077;DHT22;25777;47.824;18.982;2023-10-09T16:25:15;11.10;99.90
40077;DHT22;25777;47.824;18.982;2023-10-09T16:27:46;11.00;99.90